Ms-hamaritha — PF2437 — position and weather

sailwx.info

Track history (hours):
 
Tides and Currents Weather Stations Pressure Air Temp Water Temp Dewpoint Dewpoint Depression Visibility Wind Speed Wind Dir Waves Ship Positions

Ms-hamaritha

Last reported at 2015-Jan-29 17:33 UTC. Time now 2015-Jan-29 18:23 UTC.
Position N 51°33' E 003°59'.

Length 86 m.

Type: Ship. MMSI: 244700691.

Date/timePositionNaut miles runAvg speedWind from/ knotsBaromVisibWave heightAir tempDewpointWater temp
2015-Jan-29 17:33N 51°33' E 003°59'6 6.0
2015-Jan-29 16:32N 51°38' E 004°05'4 3.7
2015-Jan-29 15:33N 51°40' E 004°10'5 4.5
2015-Jan-29 14:33N 51°39' E 004°17'5 5.0
2015-Jan-29 13:31N 51°41' E 004°25'2 2.3
2015-Jan-29 12:33N 51°42' E 004°28'7 7.1
2015-Jan-29 11:34N 51°43' E 004°39'7 6.8
2015-Jan-29 10:33N 51°48' E 004°47'7 7.3
2015-Jan-29 09:33N 51°49' E 004°59'8 8.1
2015-Jan-29 08:34N 51°49' E 005°12'7 7.4
2015-Jan-29 07:34N 51°50' E 005°23'9 8.0
2015-Jan-29 06:28N 51°54' E 005°36'8 8.9
2015-Jan-29 05:33N 51°52' E 005°49'52 6.5
2015-Jan-28 21:33N 51°14' E 006°46'5 5.4
2015-Jan-28 20:33N 51°09' E 006°48'15 6.6
2015-Jan-28 18:21N 50°55' E 006°58'110 4.8
2015-Jan-27 19:15N 49°22' E 008°30'5 7.2
2015-Jan-27 18:33N 49°17' E 008°29'9 9.0
2015-Jan-27 17:33N 49°09' E 008°22'1010.1
2015-Jan-27 16:33N 48°60' E 008°17'10 9.9
2015-Jan-27 15:30N 48°52' E 008°07'3 2.9
2015-Jan-27 14:33N 48°49' E 008°06'7 7.1
2015-Jan-27 13:34N 48°44' E 007°58'68 3.1
2015-Jan-26 15:25N 47°38' E 007°33'3 3.0
2015-Jan-26 14:33N 47°36' E 007°36'0 0.0
2015-Jan-26 13:33N 47°36' E 007°36'0 0.0
2015-Jan-26 12:33N 47°36' E 007°36'0 0.0
2015-Jan-26 11:33N 47°36' E 007°36'0 0.0
2015-Jan-26 10:33N 47°36' E 007°36'0 0.0
2015-Jan-26 09:34N 47°36' E 007°36'0 0.0
2015-Jan-26 08:34N 47°36' E 007°36'0 0.0
2015-Jan-26 07:33N 47°36' E 007°36'0 0.0
2015-Jan-26 06:33N 47°36' E 007°36'0 0.0
2015-Jan-26 05:34N 47°36' E 007°36'0 0.0
2015-Jan-26 04:33N 47°36' E 007°36'0 0.0
2015-Jan-26 03:34N 47°36' E 007°36'0 0.0
2015-Jan-26 02:33N 47°36' E 007°36'0 0.0
2015-Jan-26 01:33N 47°36' E 007°36'0 0.0
2015-Jan-26 00:33N 47°36' E 007°36'0 0.0
2015-Jan-25 23:33N 47°36' E 007°36'0 0.0
2015-Jan-25 22:33N 47°36' E 007°36'0 0.0
2015-Jan-25 21:33N 47°36' E 007°36'0 0.0
2015-Jan-25 20:33N 47°36' E 007°36'0 0.0
2015-Jan-25 19:34N 47°36' E 007°36'0 0.0
2015-Jan-25 18:33N 47°36' E 007°36'0 0.0
2015-Jan-25 17:33N 47°36' E 007°36'0 0.0
2015-Jan-25 16:34N 47°36' E 007°36'0 0.0
2015-Jan-25 15:33N 47°36' E 007°36'0 0.0
2015-Jan-25 14:34N 47°36' E 007°36'0 0.0
2015-Jan-25 13:33N 47°36' E 007°36'0 0.0
2015-Jan-25 12:33N 47°36' E 007°36'0 0.0
2015-Jan-25 11:33N 47°36' E 007°36'0 0.0
2015-Jan-25 10:33N 47°36' E 007°36'0 0.0
2015-Jan-25 09:33N 47°36' E 007°36'0 0.0
2015-Jan-25 08:33N 47°36' E 007°36'0 0.0
2015-Jan-25 07:33N 47°36' E 007°36'0 0.0
2015-Jan-25 06:33N 47°36' E 007°36'0 0.0
2015-Jan-25 05:34N 47°36' E 007°36'0 0.0
2015-Jan-25 04:33N 47°36' E 007°36'0 0.0
2015-Jan-25 03:33N 47°36' E 007°36'0 0.0
2015-Jan-25 02:34N 47°36' E 007°36'0 0.0
2015-Jan-25 01:34N 47°36' E 007°36'0 0.0
2015-Jan-25 00:34N 47°36' E 007°36'0 0.0
2015-Jan-24 23:33N 47°36' E 007°36'0 0.0
2015-Jan-24 22:33N 47°36' E 007°36'0 0.0
2015-Jan-24 21:32N 47°36' E 007°36'0 0.0
2015-Jan-24 20:33N 47°36' E 007°36'0 0.0
2015-Jan-24 19:33N 47°36' E 007°36'0 0.0
2015-Jan-24 18:33N 47°36' E 007°36'0 0.2
2015-Jan-24 17:33N 47°36' E 007°35'0 0.0
2015-Jan-24 16:33N 47°36' E 007°35'0 0.0
2015-Jan-24 15:33N 47°36' E 007°35'0 0.0
2015-Jan-24 14:33N 47°36' E 007°35'0 0.0
2015-Jan-24 13:33N 47°36' E 007°35'0 0.0
2015-Jan-24 12:33N 47°36' E 007°35'0 0.0
2015-Jan-24 11:33N 47°36' E 007°35'0 0.0
2015-Jan-24 10:34N 47°36' E 007°35'0 0.0
2015-Jan-24 09:34N 47°36' E 007°35'0 0.0
2015-Jan-24 08:33N 47°36' E 007°35'1 1.4
2015-Jan-24 07:32N 47°37' E 007°34'71 2.8
2015-Jan-23 06:06N 48°46' E 008°00'3 5.6
2015-Jan-23 05:31N 48°47' E 008°04'3 2.0
2015-Jan-23 04:07N 48°50' E 008°07'0 0.0
2015-Jan-23 03:21N 48°50' E 008°07'0 0.0
2015-Jan-23 02:24N 48°50' E 008°07'0 0.0
2015-Jan-23 01:23N 48°50' E 008°07'0 0.0
2015-Jan-22 23:33N 48°50' E 008°07'0 0.0
2015-Jan-22 22:18N 48°50' E 008°07'0 0.0
2015-Jan-22 21:29N 48°50' E 008°07'1 0.7
2015-Jan-22 20:26N 48°50' E 008°07'3 3.5
2015-Jan-22 19:31N 48°53' E 008°08'3 3.3
2015-Jan-22 18:33N 48°56' E 008°11'3 3.1
2015-Jan-22 17:33N 48°58' E 008°14'4 3.5
2015-Jan-22 16:33N 49°01' E 008°18'4 3.7
2015-Jan-22 15:33N 49°04' E 008°20'4 3.7
2015-Jan-22 14:34N 49°08' E 008°22'4 3.6
2015-Jan-22 13:34N 49°11' E 008°23'4 3.7
2015-Jan-22 12:34N 49°15' E 008°24'4 4.1
2015-Jan-22 11:31N 49°17' E 008°29'3 3.1
2015-Jan-22 10:33N 49°20' E 008°28'110 2.4
2015-Jan-20 12:05N 50°54' E 006°59'2 4.5
2015-Jan-20 11:33N 50°56' E 006°58'11 3.4
2015-Jan-20 08:21N 51°07' E 006°53'3 3.9
2015-Jan-20 07:33N 51°10' E 006°51'2 2.2
2015-Jan-20 06:33N 51°10' E 006°48'3 3.4
2015-Jan-20 05:33N 51°12' E 006°44'2 2.3
2015-Jan-20 04:33N 51°14' E 006°46'2 1.3
2015-Jan-20 03:11N 51°15' E 006°43'0 0.0
2015-Jan-20 01:06N 51°15' E 006°43'0 0.0
2015-Jan-20 00:26N 51°15' E 006°43'0 0.0
2015-Jan-19 23:23N 51°15' E 006°43'0 0.0
2015-Jan-19 22:13N 51°15' E 006°43'0 0.0
2015-Jan-19 21:28N 51°15' E 006°43'2 1.9
2015-Jan-19 20:33N 51°17' E 006°43'  
Track history (hours):
 
Tides and Currents Weather Stations Pressure Air Temp Water Temp Dewpoint Dewpoint Depression Visibility Wind Speed Wind Dir Waves Ship Positions

Ms-hamaritha

Last reported at 2015-Jan-29 17:33 UTC. Time now 2015-Jan-29 18:23 UTC.
Position N 51°33' E 003°59'.

Length 86 m.

Type: Ship. MMSI: 244700691.

Date/timePositionNaut miles runAvg speedWind from/ knotsBaromVisibWave heightAir tempDewpointWater temp
2015-Jan-29 17:33N 51°33' E 003°59'6 6.0
2015-Jan-29 16:32N 51°38' E 004°05'4 3.7
2015-Jan-29 15:33N 51°40' E 004°10'5 4.5
2015-Jan-29 14:33N 51°39' E 004°17'5 5.0
2015-Jan-29 13:31N 51°41' E 004°25'2 2.3
2015-Jan-29 12:33N 51°42' E 004°28'7 7.1
2015-Jan-29 11:34N 51°43' E 004°39'7 6.8
2015-Jan-29 10:33N 51°48' E 004°47'7 7.3
2015-Jan-29 09:33N 51°49' E 004°59'8 8.1
2015-Jan-29 08:34N 51°49' E 005°12'7 7.4
2015-Jan-29 07:34N 51°50' E 005°23'9 8.0
2015-Jan-29 06:28N 51°54' E 005°36'8 8.9
2015-Jan-29 05:33N 51°52' E 005°49'52 6.5
2015-Jan-28 21:33N 51°14' E 006°46'5 5.4
2015-Jan-28 20:33N 51°09' E 006°48'15 6.6
2015-Jan-28 18:21N 50°55' E 006°58'110 4.8
2015-Jan-27 19:15N 49°22' E 008°30'5 7.2
2015-Jan-27 18:33N 49°17' E 008°29'9 9.0
2015-Jan-27 17:33N 49°09' E 008°22'1010.1
2015-Jan-27 16:33N 48°60' E 008°17'10 9.9
2015-Jan-27 15:30N 48°52' E 008°07'3 2.9
2015-Jan-27 14:33N 48°49' E 008°06'7 7.1
2015-Jan-27 13:34N 48°44' E 007°58'68 3.1
2015-Jan-26 15:25N 47°38' E 007°33'3 3.0
2015-Jan-26 14:33N 47°36' E 007°36'0 0.0
2015-Jan-26 13:33N 47°36' E 007°36'0 0.0
2015-Jan-26 12:33N 47°36' E 007°36'0 0.0
2015-Jan-26 11:33N 47°36' E 007°36'0 0.0
2015-Jan-26 10:33N 47°36' E 007°36'0 0.0
2015-Jan-26 09:34N 47°36' E 007°36'0 0.0
2015-Jan-26 08:34N 47°36' E 007°36'0 0.0
2015-Jan-26 07:33N 47°36' E 007°36'0 0.0
2015-Jan-26 06:33N 47°36' E 007°36'0 0.0
2015-Jan-26 05:34N 47°36' E 007°36'0 0.0
2015-Jan-26 04:33N 47°36' E 007°36'0 0.0
2015-Jan-26 03:34N 47°36' E 007°36'0 0.0
2015-Jan-26 02:33N 47°36' E 007°36'0 0.0
2015-Jan-26 01:33N 47°36' E 007°36'0 0.0
2015-Jan-26 00:33N 47°36' E 007°36'0 0.0
2015-Jan-25 23:33N 47°36' E 007°36'0 0.0
2015-Jan-25 22:33N 47°36' E 007°36'0 0.0
2015-Jan-25 21:33N 47°36' E 007°36'0 0.0
2015-Jan-25 20:33N 47°36' E 007°36'0 0.0
2015-Jan-25 19:34N 47°36' E 007°36'0 0.0
2015-Jan-25 18:33N 47°36' E 007°36'0 0.0
2015-Jan-25 17:33N 47°36' E 007°36'0 0.0
2015-Jan-25 16:34N 47°36' E 007°36'0 0.0
2015-Jan-25 15:33N 47°36' E 007°36'0 0.0
2015-Jan-25 14:34N 47°36' E 007°36'0 0.0
2015-Jan-25 13:33N 47°36' E 007°36'0 0.0
2015-Jan-25 12:33N 47°36' E 007°36'0 0.0
2015-Jan-25 11:33N 47°36' E 007°36'0 0.0
2015-Jan-25 10:33N 47°36' E 007°36'0 0.0
2015-Jan-25 09:33N 47°36' E 007°36'0 0.0
2015-Jan-25 08:33N 47°36' E 007°36'0 0.0
2015-Jan-25 07:33N 47°36' E 007°36'0 0.0
2015-Jan-25 06:33N 47°36' E 007°36'0 0.0
2015-Jan-25 05:34N 47°36' E 007°36'0 0.0
2015-Jan-25 04:33N 47°36' E 007°36'0 0.0
2015-Jan-25 03:33N 47°36' E 007°36'0 0.0
2015-Jan-25 02:34N 47°36' E 007°36'0 0.0
2015-Jan-25 01:34N 47°36' E 007°36'0 0.0
2015-Jan-25 00:34N 47°36' E 007°36'0 0.0
2015-Jan-24 23:33N 47°36' E 007°36'0 0.0
2015-Jan-24 22:33N 47°36' E 007°36'0 0.0
2015-Jan-24 21:32N 47°36' E 007°36'0 0.0
2015-Jan-24 20:33N 47°36' E 007°36'0 0.0
2015-Jan-24 19:33N 47°36' E 007°36'0 0.0
2015-Jan-24 18:33N 47°36' E 007°36'0 0.2
2015-Jan-24 17:33N 47°36' E 007°35'0 0.0
2015-Jan-24 16:33N 47°36' E 007°35'0 0.0
2015-Jan-24 15:33N 47°36' E 007°35'0 0.0
2015-Jan-24 14:33N 47°36' E 007°35'0 0.0
2015-Jan-24 13:33N 47°36' E 007°35'0 0.0
2015-Jan-24 12:33N 47°36' E 007°35'0 0.0
2015-Jan-24 11:33N 47°36' E 007°35'0 0.0
2015-Jan-24 10:34N 47°36' E 007°35'0 0.0
2015-Jan-24 09:34N 47°36' E 007°35'0 0.0
2015-Jan-24 08:33N 47°36' E 007°35'1 1.4
2015-Jan-24 07:32N 47°37' E 007°34'71 2.8
2015-Jan-23 06:06N 48°46' E 008°00'3 5.6
2015-Jan-23 05:31N 48°47' E 008°04'3 2.0
2015-Jan-23 04:07N 48°50' E 008°07'0 0.0
2015-Jan-23 03:21N 48°50' E 008°07'0 0.0
2015-Jan-23 02:24N 48°50' E 008°07'0 0.0
2015-Jan-23 01:23N 48°50' E 008°07'0 0.0
2015-Jan-22 23:33N 48°50' E 008°07'0 0.0
2015-Jan-22 22:18N 48°50' E 008°07'0 0.0
2015-Jan-22 21:29N 48°50' E 008°07'1 0.7
2015-Jan-22 20:26N 48°50' E 008°07'3 3.5
2015-Jan-22 19:31N 48°53' E 008°08'3 3.3
2015-Jan-22 18:33N 48°56' E 008°11'3 3.1
2015-Jan-22 17:33N 48°58' E 008°14'4 3.5
2015-Jan-22 16:33N 49°01' E 008°18'4 3.7
2015-Jan-22 15:33N 49°04' E 008°20'4 3.7
2015-Jan-22 14:34N 49°08' E 008°22'4 3.6
2015-Jan-22 13:34N 49°11' E 008°23'4 3.7
2015-Jan-22 12:34N 49°15' E 008°24'4 4.1
2015-Jan-22 11:31N 49°17' E 008°29'3 3.1
2015-Jan-22 10:33N 49°20' E 008°28'110 2.4
2015-Jan-20 12:05N 50°54' E 006°59'2 4.5
2015-Jan-20 11:33N 50°56' E 006°58'11 3.4
2015-Jan-20 08:21N 51°07' E 006°53'3 3.9
2015-Jan-20 07:33N 51°10' E 006°51'2 2.2
2015-Jan-20 06:33N 51°10' E 006°48'3 3.4
2015-Jan-20 05:33N 51°12' E 006°44'2 2.3
2015-Jan-20 04:33N 51°14' E 006°46'2 1.3
2015-Jan-20 03:11N 51°15' E 006°43'0 0.0
2015-Jan-20 01:06N 51°15' E 006°43'0 0.0
2015-Jan-20 00:26N 51°15' E 006°43'0 0.0
2015-Jan-19 23:23N 51°15' E 006°43'0 0.0
2015-Jan-19 22:13N 51°15' E 006°43'0 0.0
2015-Jan-19 21:28N 51°15' E 006°43'2 1.9
2015-Jan-19 20:33N 51°17' E 006°43'  

Dump ship's entire track history